createdAt,value
2017-04-02T00:01:11.676Z,1005.72
2017-04-02T00:02:11.361Z,1005.69
2017-04-02T00:03:11.298Z,1005.71
2017-04-02T00:04:11.237Z,1005.67
2017-04-02T00:05:11.175Z,1005.68
2017-04-02T00:06:11.115Z,1005.63
2017-04-02T00:07:11.052Z,1005.68
2017-04-02T00:08:10.991Z,1005.69
2017-04-02T00:09:10.931Z,1005.71
2017-04-02T00:10:10.869Z,1005.74
2017-04-02T00:11:10.808Z,1005.69
2017-04-02T00:12:10.746Z,1005.74
2017-04-02T00:13:10.684Z,1005.74
2017-04-02T00:14:10.624Z,1005.71
2017-04-02T00:15:10.562Z,1005.64
2017-04-02T00:16:10.500Z,1005.64
2017-04-02T00:17:10.474Z,1005.63
2017-04-02T00:18:10.377Z,1005.6
2017-04-02T00:19:10.315Z,1005.54
2017-04-02T00:20:10.257Z,1005.59
2017-04-02T00:21:10.193Z,1005.55
2017-04-02T00:22:10.130Z,1005.53
2017-04-02T00:23:10.073Z,1005.56
2017-04-02T00:24:10.009Z,1005.55
2017-04-02T00:25:09.948Z,1005.56
2017-04-02T00:26:09.885Z,1005.59
2017-04-02T00:27:09.824Z,1005.61
2017-04-02T00:28:09.763Z,1005.58
2017-04-02T00:29:09.702Z,1005.62
2017-04-02T00:30:09.641Z,1005.63
2017-04-02T00:31:09.580Z,1005.63
2017-04-02T00:32:09.518Z,1005.66
2017-04-02T00:33:09.456Z,1005.62
2017-04-02T00:34:09.394Z,1005.64
2017-04-02T00:35:09.333Z,1005.68
2017-04-02T00:36:09.272Z,1005.66
2017-04-02T00:37:09.210Z,1005.65
2017-04-02T00:38:09.149Z,1005.64
2017-04-02T00:39:09.087Z,1005.62
2017-04-02T00:40:09.027Z,1005.68
2017-04-02T00:41:08.963Z,1005.63
2017-04-02T00:42:08.904Z,1005.65
2017-04-02T00:43:08.842Z,1005.64
2017-04-02T00:44:08.779Z,1005.65
2017-04-02T00:45:08.719Z,1005.67
2017-04-02T00:46:08.657Z,1005.69
2017-04-02T00:47:08.597Z,1005.65
2017-04-02T00:48:08.534Z,1005.67
2017-04-02T00:49:08.472Z,1005.64
2017-04-02T00:50:08.412Z,1005.61
2017-04-02T00:51:08.350Z,1005.6
2017-04-02T00:52:08.293Z,1005.6
2017-04-02T00:53:08.228Z,1005.55
2017-04-02T00:54:08.166Z,1005.52
2017-04-02T00:55:08.104Z,1005.52
2017-04-02T00:56:08.045Z,1005.55
2017-04-02T00:57:07.983Z,1005.51
2017-04-02T00:58:07.920Z,1005.53
2017-04-02T00:59:07.858Z,1005.61
2017-04-02T01:00:07.797Z,1005.54
2017-04-02T01:01:07.736Z,1005.54
2017-04-02T01:02:07.676Z,1005.5
2017-04-02T01:03:07.613Z,1005.52
2017-04-02T01:04:07.551Z,1005.53
2017-04-02T01:05:07.490Z,1005.53
2017-04-02T01:06:07.427Z,1005.51
2017-04-02T01:07:07.367Z,1005.57
2017-04-02T01:08:07.305Z,1005.51
2017-04-02T01:09:07.244Z,1005.49
2017-04-02T01:10:07.181Z,1005.5
2017-04-02T01:11:07.120Z,1005.49
2017-04-02T01:12:07.059Z,1005.51
2017-04-02T01:13:07.098Z,1005.5
2017-04-02T01:14:06.935Z,1005.52
2017-04-02T01:15:06.876Z,1005.56
2017-04-02T01:16:06.813Z,1005.59
2017-04-02T01:17:06.751Z,1005.6
2017-04-02T01:18:06.689Z,1005.64
2017-04-02T01:19:06.630Z,1005.63
2017-04-02T01:20:06.567Z,1005.64
2017-04-02T01:21:06.505Z,1005.64
2017-04-02T01:22:06.443Z,1005.61
2017-04-02T01:23:06.383Z,1005.53
2017-04-02T01:24:06.323Z,1005.45
2017-04-02T01:25:06.261Z,1005.43
2017-04-02T01:26:06.199Z,1005.53
2017-04-02T01:27:06.138Z,1005.53
2017-04-02T01:28:06.075Z,1005.58
2017-04-02T01:29:06.015Z,1005.62
2017-04-02T01:30:05.952Z,1005.68
2017-04-02T01:31:05.892Z,1005.74
2017-04-02T01:32:05.829Z,1005.76
2017-04-02T01:33:05.767Z,1005.76
2017-04-02T01:34:05.708Z,1005.8
2017-04-02T01:35:05.646Z,1005.82
2017-04-02T01:36:05.585Z,1005.82
2017-04-02T01:37:05.524Z,1005.81
2017-04-02T01:38:05.463Z,1005.87
2017-04-02T01:39:05.437Z,1005.94
2017-04-02T01:40:05.339Z,1005.93
2017-04-02T01:41:05.278Z,1005.93
2017-04-02T01:42:05.217Z,1006.02
2017-04-02T01:43:05.155Z,1006.02
2017-04-02T01:44:05.451Z,1006.08
2017-04-02T01:45:05.031Z,1006.14
2017-04-02T01:46:04.970Z,1006.19
2017-04-02T01:47:04.909Z,1006.21
2017-04-02T01:48:04.848Z,1006.24
2017-04-02T01:49:04.785Z,1006.28
2017-04-02T01:50:04.724Z,1006.32
2017-04-02T01:51:04.663Z,1006.32
2017-04-02T01:52:04.601Z,1006.33
2017-04-02T01:53:04.541Z,1006.37
2017-04-02T01:54:04.480Z,1006.41
2017-04-02T01:55:04.417Z,1006.4
2017-04-02T01:56:04.356Z,1006.43
2017-04-02T01:57:04.292Z,1006.47
2017-04-02T01:58:04.232Z,1006.47
2017-04-02T01:59:04.172Z,1006.51
2017-04-02T02:00:04.110Z,1006.54
2017-04-02T02:01:04.049Z,1006.53
2017-04-02T02:02:03.986Z,1006.55
2017-04-02T02:03:03.927Z,1006.58
2017-04-02T02:04:03.864Z,1006.61
2017-04-02T02:05:03.802Z,1006.65
2017-04-02T02:06:03.741Z,1006.58
2017-04-02T02:07:03.680Z,1006.62
2017-04-02T02:08:03.617Z,1006.64
2017-04-02T02:09:03.557Z,1006.6
2017-04-02T02:10:03.498Z,1006.62
2017-04-02T02:11:03.433Z,1006.58
2017-04-02T02:12:03.371Z,1006.62
2017-04-02T02:13:03.310Z,1006.6
2017-04-02T02:14:03.250Z,1006.61
2017-04-02T02:15:03.188Z,1006.57
2017-04-02T02:16:03.126Z,1006.57
2017-04-02T02:17:03.066Z,1006.55
2017-04-02T02:18:03.005Z,1006.51
2017-04-02T02:19:02.941Z,1006.5
2017-04-02T02:20:02.880Z,1006.52
2017-04-02T02:21:02.820Z,1006.54
2017-04-02T02:22:02.759Z,1006.56
2017-04-02T02:23:02.698Z,1006.57
2017-04-02T02:24:02.635Z,1006.65
2017-04-02T02:25:02.576Z,1006.67
2017-04-02T02:26:02.512Z,1006.72
2017-04-02T02:27:02.449Z,1006.73
2017-04-02T02:28:02.388Z,1006.72
2017-04-02T02:29:02.327Z,1006.76
2017-04-02T02:30:02.266Z,1006.73
2017-04-02T02:31:02.205Z,1006.76
2017-04-02T02:32:02.143Z,1006.79
2017-04-02T02:33:02.081Z,1006.81
2017-04-02T02:34:02.019Z,1006.81
2017-04-02T02:35:01.958Z,1006.85
2017-04-02T02:36:01.898Z,1006.83
2017-04-02T02:37:01.836Z,1006.86
2017-04-02T02:38:01.779Z,1006.88
2017-04-02T02:39:01.712Z,1006.93
2017-04-02T02:40:01.651Z,1006.93
2017-04-02T02:41:01.589Z,1006.96
2017-04-02T02:42:01.527Z,1007.01
2017-04-02T02:43:01.466Z,1007.06
2017-04-02T02:44:01.405Z,1007.11
2017-04-02T02:45:01.343Z,1007.08
2017-04-02T02:46:01.282Z,1007.09
2017-04-02T02:47:01.221Z,1007.13
2017-04-02T02:48:01.170Z,1007.15
2017-04-02T02:49:01.097Z,1007.15
2017-04-02T02:50:01.036Z,1007.09
2017-04-02T02:51:00.974Z,1007.08
2017-04-02T02:52:00.914Z,1007.06
2017-04-02T02:53:00.852Z,1007.06
2017-04-02T02:54:00.790Z,1007.07
2017-04-02T02:55:00.728Z,1007.08
2017-04-02T02:56:00.666Z,1007.05
2017-04-02T02:57:00.606Z,1007.08
2017-04-02T02:58:00.545Z,1007.07
2017-04-02T02:59:00.482Z,1007.06
2017-04-02T03:00:00.420Z,1007.1
2017-04-02T03:01:00.359Z,1007.09
2017-04-02T03:02:00.297Z,1007.36
2017-04-02T03:03:00.235Z,1007.23
2017-04-02T03:04:00.175Z,1007.09
2017-04-02T03:05:00.114Z,1007.07
2017-04-02T03:06:00.052Z,1007.05
2017-04-02T03:06:59.990Z,1007.11
2017-04-02T03:07:59.929Z,1007.13
2017-04-02T03:08:59.867Z,1007.17
2017-04-02T03:09:59.806Z,1007.16
2017-04-02T03:10:59.744Z,1007.17
2017-04-02T03:11:59.683Z,1007.17
2017-04-02T03:12:59.622Z,1007.16
2017-04-02T03:13:59.560Z,1007.22
2017-04-02T03:14:59.498Z,1007.19
2017-04-02T03:15:59.437Z,1007.21
2017-04-02T03:16:59.378Z,1007.23
2017-04-02T03:17:59.314Z,1007.23
2017-04-02T03:18:59.253Z,1007.21
2017-04-02T03:19:59.193Z,1007.23
2017-04-02T03:20:59.129Z,1007.26
2017-04-02T03:21:59.068Z,1007.29
2017-04-02T03:22:59.007Z,1007.3
2017-04-02T03:23:58.944Z,1007.31
2017-04-02T03:24:58.883Z,1007.34
2017-04-02T03:25:58.822Z,1007.34
2017-04-02T03:26:58.761Z,1007.35
2017-04-02T03:27:58.698Z,1007.32
2017-04-02T03:28:58.637Z,1007.35
2017-04-02T03:29:58.576Z,1007.35
2017-04-02T03:30:58.514Z,1007.34
2017-04-02T03:31:58.451Z,1007.36
2017-04-02T03:32:58.391Z,1007.39
2017-04-02T03:33:58.330Z,1007.38
2017-04-02T03:34:58.267Z,1007.37
2017-04-02T03:35:58.205Z,1007.39
2017-04-02T03:36:58.145Z,1007.36
2017-04-02T03:37:58.083Z,1007.39
2017-04-02T03:38:58.021Z,1007.4
2017-04-02T03:39:57.959Z,1007.4
2017-04-02T03:40:57.896Z,1007.42
2017-04-02T03:41:57.835Z,1007.42
2017-04-02T03:42:57.773Z,1007.44
2017-04-02T03:43:57.711Z,1007.46
2017-04-02T03:44:57.654Z,1007.44
2017-04-02T03:45:57.588Z,1007.46
2017-04-02T03:46:57.527Z,1007.44
2017-04-02T03:47:57.465Z,1007.45
2017-04-02T03:48:57.404Z,1007.46
2017-04-02T03:49:57.343Z,1007.48
2017-04-02T03:50:57.281Z,1007.47
2017-04-02T03:51:57.219Z,1007.48
2017-04-02T03:52:57.158Z,1007.49
2017-04-02T03:53:57.096Z,1007.52
2017-04-02T03:54:57.034Z,1007.51
2017-04-02T03:55:56.971Z,1007.52
2017-04-02T03:56:56.910Z,1007.51
2017-04-02T03:57:56.848Z,1007.54
2017-04-02T03:58:56.787Z,1007.55
2017-04-02T03:59:56.725Z,1007.53
2017-04-02T04:00:56.664Z,1007.53
2017-04-02T04:01:56.601Z,1007.54
2017-04-02T04:02:56.539Z,1007.55
2017-04-02T04:03:56.477Z,1007.58
2017-04-02T04:04:56.417Z,1007.57
2017-04-02T04:05:56.354Z,1007.59
2017-04-02T04:06:56.291Z,1007.58
2017-04-02T04:07:56.231Z,1007.57
2017-04-02T04:08:56.168Z,1007.57
2017-04-02T04:09:56.107Z,1007.55
2017-04-02T04:10:56.047Z,1007.54
2017-04-02T04:11:55.985Z,1007.52
2017-04-02T04:12:55.922Z,1007.53
2017-04-02T04:13:55.860Z,1007.49
2017-04-02T04:14:55.798Z,1007.5
2017-04-02T04:15:55.736Z,1007.55
2017-04-02T04:16:55.675Z,1007.55
2017-04-02T04:17:55.616Z,1007.57
2017-04-02T04:18:55.552Z,1007.56
2017-04-02T04:19:55.488Z,1007.56
2017-04-02T04:20:55.427Z,1007.58
2017-04-02T04:21:55.367Z,1007.59
2017-04-02T04:22:55.308Z,1007.61
2017-04-02T04:23:55.242Z,1007.62
2017-04-02T04:24:55.182Z,1007.66
2017-04-02T04:25:55.118Z,1007.69
2017-04-02T04:26:55.061Z,1007.67
2017-04-02T04:27:54.995Z,1007.68
2017-04-02T04:28:54.934Z,1007.7
2017-04-02T04:29:54.872Z,1007.72
2017-04-02T04:30:54.810Z,1007.74
2017-04-02T04:31:54.749Z,1007.77
2017-04-02T04:32:54.686Z,1007.75
2017-04-02T04:33:54.625Z,1007.76
2017-04-02T04:34:54.561Z,1007.82
2017-04-02T04:35:54.501Z,1007.85
2017-04-02T04:36:54.439Z,1007.86
2017-04-02T04:37:54.378Z,1007.86
2017-04-02T04:38:54.315Z,1007.89
2017-04-02T04:39:54.254Z,1007.91
2017-04-02T04:40:54.190Z,1007.94
2017-04-02T04:41:54.128Z,1007.93
2017-04-02T04:42:54.067Z,1007.95
2017-04-02T04:43:54.005Z,1007.93
2017-04-02T04:44:53.949Z,1007.92
2017-04-02T04:45:53.883Z,1007.9
2017-04-02T04:46:53.821Z,1007.89
2017-04-02T04:47:53.760Z,1007.87
2017-04-02T04:48:53.703Z,1007.89
2017-04-02T04:49:53.635Z,1007.86
2017-04-02T04:50:53.574Z,1007.92
2017-04-02T04:51:53.511Z,1007.89
2017-04-02T04:52:53.449Z,1007.9
2017-04-02T04:53:53.388Z,1007.93
2017-04-02T04:54:53.327Z,1007.94
2017-04-02T04:55:53.263Z,1007.97
2017-04-02T04:56:53.203Z,1008.01
2017-04-02T04:57:53.140Z,1008.07
2017-04-02T04:58:53.080Z,1008.08
2017-04-02T04:59:53.017Z,1008.11
2017-04-02T05:00:52.955Z,1008.13
2017-04-02T05:01:52.894Z,1008.19
2017-04-02T05:02:52.831Z,1008.2
2017-04-02T05:03:52.774Z,1008.32
2017-04-02T05:04:52.707Z,1008.31
2017-04-02T05:05:52.646Z,1008.3
2017-04-02T05:06:52.582Z,1008.29
2017-04-02T05:07:52.520Z,1008.3
2017-04-02T05:08:52.459Z,1008.28
2017-04-02T05:09:52.400Z,1008.31
2017-04-02T05:10:52.336Z,1008.35
2017-04-02T05:11:52.274Z,1008.38
2017-04-02T05:12:52.213Z,1008.38
2017-04-02T05:13:52.151Z,1008.42
2017-04-02T05:14:52.088Z,1008.46
2017-04-02T05:15:52.026Z,1008.51
2017-04-02T05:16:51.965Z,1008.47
2017-04-02T05:17:51.901Z,1008.51
2017-04-02T05:18:51.839Z,1008.55
2017-04-02T05:19:51.779Z,1008.53
2017-04-02T05:20:51.718Z,1008.58
2017-04-02T05:21:51.654Z,1008.61
2017-04-02T05:22:51.592Z,1008.62
2017-04-02T05:23:51.530Z,1008.62
2017-04-02T05:24:51.469Z,1008.69
2017-04-02T05:25:51.407Z,1008.7
2017-04-02T05:26:51.344Z,1008.73
2017-04-02T05:27:51.282Z,1008.69
2017-04-02T05:28:51.221Z,1008.72
2017-04-02T05:29:51.158Z,1008.73
2017-04-02T05:30:51.097Z,1008.76
2017-04-02T05:31:51.036Z,1008.79
2017-04-02T05:32:50.974Z,1008.82
2017-04-02T05:33:50.911Z,1008.83
2017-04-02T05:34:50.850Z,1008.89
2017-04-02T05:35:50.789Z,1008.97
2017-04-02T05:36:50.726Z,1008.99
2017-04-02T05:37:50.663Z,1009.02
2017-04-02T05:38:50.601Z,1009.02
2017-04-02T05:39:50.539Z,1009.05
2017-04-02T05:40:50.480Z,1008.99
2017-04-02T05:41:50.417Z,1009.07
2017-04-02T05:42:50.356Z,1009.11
2017-04-02T05:43:50.292Z,1009.13
2017-04-02T05:44:50.230Z,1009.18
2017-04-02T05:45:50.170Z,1009.2
2017-04-02T05:46:50.108Z,1009.27
2017-04-02T05:47:50.049Z,1009.29
2017-04-02T05:48:49.983Z,1009.29
2017-04-02T05:49:49.921Z,1009.31
2017-04-02T05:50:49.861Z,1009.32
2017-04-02T05:51:49.797Z,1009.37
2017-04-02T05:52:49.736Z,1009.4
2017-04-02T05:53:49.675Z,1009.39
2017-04-02T05:54:49.612Z,1009.4
2017-04-02T05:55:49.551Z,1009.38
2017-04-02T05:56:49.489Z,1009.4
2017-04-02T05:57:49.427Z,1009.4
2017-04-02T05:58:49.364Z,1009.38
2017-04-02T05:59:49.303Z,1009.37
2017-04-02T06:00:49.241Z,1009.38
2017-04-02T06:01:49.180Z,1009.42
2017-04-02T06:02:49.117Z,1009.45
2017-04-02T06:03:49.056Z,1009.49
2017-04-02T06:04:48.994Z,1009.53
2017-04-02T06:05:48.932Z,1009.62
2017-04-02T06:06:48.870Z,1009.68
2017-04-02T06:07:48.807Z,1009.75
2017-04-02T06:08:48.747Z,1009.77
2017-04-02T06:09:48.686Z,1009.79
2017-04-02T06:10:48.622Z,1009.79
2017-04-02T06:11:48.561Z,1009.81
2017-04-02T06:12:48.500Z,1009.8
2017-04-02T06:13:48.436Z,1009.81
2017-04-02T06:14:48.375Z,1009.74
2017-04-02T06:15:48.314Z,1009.74
2017-04-02T06:16:48.251Z,1009.71
2017-04-02T06:17:48.188Z,1009.72
2017-04-02T06:18:48.127Z,1009.67
2017-04-02T06:19:48.066Z,1009.71
2017-04-02T06:20:48.004Z,1009.74
2017-04-02T06:21:47.942Z,1009.78
2017-04-02T06:22:47.881Z,1009.83
2017-04-02T06:23:47.818Z,1009.88
2017-04-02T06:24:47.758Z,1009.87
2017-04-02T06:25:47.694Z,1009.91
2017-04-02T06:26:47.633Z,1009.99
2017-04-02T06:27:47.572Z,1010.02
2017-04-02T06:28:47.509Z,1010.06
2017-04-02T06:29:47.446Z,1010.08
2017-04-02T06:30:47.385Z,1010.09
2017-04-02T06:31:47.324Z,1010.08
2017-04-02T06:32:47.261Z,1010.09
2017-04-02T06:33:47.201Z,1010.12
2017-04-02T06:34:47.138Z,1010.11
2017-04-02T06:35:47.075Z,1010.13
2017-04-02T06:36:47.015Z,1010.13
2017-04-02T06:37:46.953Z,1010.13
2017-04-02T06:38:46.893Z,1010.1
2017-04-02T06:39:46.828Z,1010.17
2017-04-02T06:40:46.767Z,1010.19
2017-04-02T06:41:46.704Z,1010.22
2017-04-02T06:42:46.646Z,1010.24
2017-04-02T06:43:46.581Z,1010.23
2017-04-02T06:44:46.519Z,1010.26
2017-04-02T06:45:46.458Z,1010.23
2017-04-02T06:46:46.396Z,1010.27
2017-04-02T06:47:46.334Z,1010.26
2017-04-02T06:48:46.273Z,1010.3
2017-04-02T06:49:46.209Z,1010.29
2017-04-02T06:50:46.149Z,1010.28
2017-04-02T06:51:46.088Z,1010.23
2017-04-02T06:52:46.024Z,1010.24
2017-04-02T06:53:45.963Z,1010.25
2017-04-02T06:54:45.901Z,1010.24
2017-04-02T06:55:45.841Z,1010.27
2017-04-02T06:56:45.778Z,1010.25
2017-04-02T06:57:45.714Z,1010.24
2017-04-02T06:58:45.654Z,1010.24
2017-04-02T06:59:45.592Z,1010.31
2017-04-02T07:00:45.530Z,1010.26
2017-04-02T07:01:45.469Z,1010.31
2017-04-02T07:02:45.405Z,1010.33
2017-04-02T07:03:45.345Z,1010.35
2017-04-02T07:04:45.281Z,1010.38
2017-04-02T07:05:45.220Z,1010.43
2017-04-02T07:06:45.160Z,1010.47
2017-04-02T07:07:45.096Z,1010.47
2017-04-02T07:08:45.043Z,1010.51
2017-04-02T07:09:44.974Z,1010.47
2017-04-02T07:10:44.913Z,1010.5
2017-04-02T07:11:44.850Z,1010.51
2017-04-02T07:12:44.787Z,1010.51
2017-04-02T07:13:44.726Z,1010.55
2017-04-02T07:14:44.664Z,1010.52
2017-04-02T07:15:44.601Z,1010.54
2017-04-02T07:16:44.541Z,1010.56
2017-04-02T07:17:44.497Z,1010.59
2017-04-02T07:18:44.425Z,1010.64
2017-04-02T07:19:44.358Z,1010.64
2017-04-02T07:20:44.293Z,1010.65
2017-04-02T07:21:44.242Z,1010.68
2017-04-02T07:22:44.169Z,1010.71
2017-04-02T07:23:44.107Z,1010.73
2017-04-02T07:24:44.047Z,1010.77
2017-04-02T07:25:43.984Z,1010.76
2017-04-02T07:26:43.922Z,1010.79
2017-04-02T07:27:43.861Z,1010.84
2017-04-02T07:28:43.799Z,1010.84
2017-04-02T07:29:43.738Z,1010.88
2017-04-02T07:30:43.674Z,1010.92
2017-04-02T07:31:43.612Z,1010.93
2017-04-02T07:32:43.551Z,1010.95
2017-04-02T07:33:43.489Z,1010.96
2017-04-02T07:34:43.428Z,1010.98
2017-04-02T07:35:43.367Z,1011
2017-04-02T07:36:43.304Z,1011.02
2017-04-02T07:37:43.242Z,1011
2017-04-02T07:38:43.179Z,1011.11
2017-04-02T07:39:43.118Z,1011.1
2017-04-02T07:40:43.059Z,1011.16
2017-04-02T07:41:42.996Z,1011.18
2017-04-02T07:42:42.934Z,1011.17
2017-04-02T07:43:42.872Z,1011.25
2017-04-02T07:44:42.809Z,1011.23
2017-04-02T07:45:42.748Z,1011.21
2017-04-02T07:46:42.720Z,1011.24
2017-04-02T07:47:42.623Z,1011.23
2017-04-02T07:48:42.579Z,1011.27
2017-04-02T07:49:42.539Z,1011.26
2017-04-02T07:50:42.440Z,1011.29
2017-04-02T07:51:42.415Z,1011.3
2017-04-02T07:52:42.314Z,1011.33
2017-04-02T07:53:42.254Z,1011.31
2017-04-02T07:54:42.193Z,1011.32
2017-04-02T07:55:42.130Z,1011.37
2017-04-02T07:56:42.068Z,1011.37
2017-04-02T07:57:42.007Z,1011.34
2017-04-02T07:58:41.946Z,1011.35
2017-04-02T07:59:41.884Z,1011.37
2017-04-02T08:00:41.824Z,1011.39
2017-04-02T08:01:41.760Z,1011.4
2017-04-02T08:02:41.697Z,1011.39
2017-04-02T08:03:41.636Z,1011.4
2017-04-02T08:04:41.576Z,1011.41
2017-04-02T08:05:41.513Z,1011.39
2017-04-02T08:06:41.453Z,1011.38
2017-04-02T08:07:41.390Z,1011.44
2017-04-02T08:08:41.329Z,1011.38
2017-04-02T08:09:41.265Z,1011.42
2017-04-02T08:10:41.204Z,1011.4
2017-04-02T08:11:41.142Z,1011.38
2017-04-02T08:12:41.080Z,1011.43
2017-04-02T08:13:41.019Z,1011.46
2017-04-02T08:14:40.958Z,1011.4
2017-04-02T08:15:40.895Z,1011.43
2017-04-02T08:16:40.832Z,1011.47
2017-04-02T08:17:40.772Z,1011.47
2017-04-02T08:18:40.712Z,1011.45
2017-04-02T08:19:40.649Z,1011.47
2017-04-02T08:20:40.585Z,1011.5
2017-04-02T08:21:40.525Z,1011.53
2017-04-02T08:22:40.462Z,1011.58
2017-04-02T08:23:40.402Z,1011.6
2017-04-02T08:24:40.338Z,1011.66
2017-04-02T08:25:40.276Z,1011.65
2017-04-02T08:26:40.215Z,1011.69
2017-04-02T08:27:40.153Z,1011.71
2017-04-02T08:28:40.093Z,1011.69
2017-04-02T08:29:40.029Z,1011.73
2017-04-02T08:30:39.970Z,1011.75
2017-04-02T08:31:39.926Z,1011.75
2017-04-02T08:32:39.844Z,1011.73
2017-04-02T08:33:39.783Z,1011.76
2017-04-02T08:34:39.722Z,1011.79
2017-04-02T08:35:39.659Z,1011.81
2017-04-02T08:36:39.599Z,1011.81
2017-04-02T08:37:39.535Z,1011.84
2017-04-02T08:38:39.477Z,1011.81
2017-04-02T08:39:39.411Z,1011.81
2017-04-02T08:40:39.349Z,1011.82
2017-04-02T08:41:39.289Z,1011.85
2017-04-02T08:42:39.227Z,1011.79
2017-04-02T08:43:39.166Z,1011.88
2017-04-02T08:44:39.103Z,1011.87
2017-04-02T08:45:39.044Z,1011.88
2017-04-02T08:46:38.978Z,1011.95
2017-04-02T08:47:38.917Z,1011.99
2017-04-02T08:48:38.856Z,1012.01
2017-04-02T08:49:38.794Z,1012.06
2017-04-02T08:50:38.733Z,1012.08
2017-04-02T08:51:38.672Z,1012.12
2017-04-02T08:52:38.609Z,1012.15
2017-04-02T08:53:38.547Z,1012.14
2017-04-02T08:54:38.485Z,1012.1
2017-04-02T08:55:38.422Z,1012.12
2017-04-02T08:56:38.363Z,1012.13
2017-04-02T08:57:38.300Z,1012.13
2017-04-02T08:58:38.242Z,1012.11
2017-04-02T08:59:38.175Z,1012.15
2017-04-02T09:00:38.115Z,1012.17
2017-04-02T09:01:38.053Z,1012.12
2017-04-02T09:02:37.991Z,1012.15
2017-04-02T09:03:37.929Z,1012.2
2017-04-02T09:04:37.868Z,1012.17
2017-04-02T09:05:37.806Z,1012.21
2017-04-02T09:06:37.744Z,1012.2
2017-04-02T09:07:37.683Z,1012.18
2017-04-02T09:08:37.620Z,1012.19
2017-04-02T09:09:37.559Z,1012.22
2017-04-02T09:10:37.498Z,1012.18
2017-04-02T09:11:37.435Z,1012.19
2017-04-02T09:12:37.378Z,1012.21
2017-04-02T09:13:37.311Z,1012.27
2017-04-02T09:14:37.250Z,1012.26
2017-04-02T09:15:37.188Z,1012.28
2017-04-02T09:16:37.126Z,1012.27
2017-04-02T09:17:37.065Z,1012.32
2017-04-02T09:18:37.004Z,1012.31
2017-04-02T09:19:36.941Z,1012.34
2017-04-02T09:20:36.881Z,1012.35
2017-04-02T09:21:36.819Z,1012.36
2017-04-02T09:22:36.756Z,1012.39
2017-04-02T09:23:36.694Z,1012.38
2017-04-02T09:24:36.632Z,1012.41
2017-04-02T09:25:36.571Z,1012.45
2017-04-02T09:26:36.510Z,1012.46
2017-04-02T09:27:36.448Z,1012.44
2017-04-02T09:28:36.387Z,1012.49
2017-04-02T09:29:36.324Z,1012.5
2017-04-02T09:30:36.265Z,1012.52
2017-04-02T09:31:36.217Z,1012.59
2017-04-02T09:32:36.141Z,1012.59
2017-04-02T09:33:36.077Z,1012.62
2017-04-02T09:34:36.015Z,1012.67
2017-04-02T09:35:35.956Z,1012.68
2017-04-02T09:36:35.894Z,1012.72
2017-04-02T09:37:35.831Z,1012.73
2017-04-02T09:38:35.769Z,1012.75
2017-04-02T09:39:35.707Z,1012.76
2017-04-02T09:40:35.646Z,1012.77
2017-04-02T09:41:35.584Z,1012.75
2017-04-02T09:42:35.523Z,1012.75
2017-04-02T09:43:35.460Z,1012.77
2017-04-02T09:44:35.399Z,1012.76
2017-04-02T09:45:35.338Z,1012.81
2017-04-02T09:46:35.276Z,1012.82
2017-04-02T09:47:35.215Z,1012.83
2017-04-02T09:48:35.152Z,1012.87
2017-04-02T09:49:35.090Z,1012.88
2017-04-02T09:50:35.030Z,1012.9
2017-04-02T09:51:34.967Z,1012.91
2017-04-02T09:52:34.905Z,1012.89
2017-04-02T09:53:34.844Z,1012.89
2017-04-02T09:54:34.785Z,1012.88
2017-04-02T09:55:34.720Z,1012.89
2017-04-02T09:56:34.659Z,1012.9
2017-04-02T09:57:34.596Z,1012.87
2017-04-02T09:58:34.536Z,1012.9
2017-04-02T09:59:34.506Z,1012.91
2017-04-02T10:00:34.412Z,1012.95
2017-04-02T10:01:34.350Z,1012.99
2017-04-02T10:02:34.288Z,1012.98
2017-04-02T10:03:34.228Z,1013.02
2017-04-02T10:04:34.198Z,1013.02
2017-04-02T10:05:34.104Z,1013.04
2017-04-02T10:06:34.041Z,1013.03
2017-04-02T10:07:33.980Z,1013.02
2017-04-02T10:08:33.920Z,1013.02
2017-04-02T10:09:33.857Z,1013.03
2017-04-02T10:10:33.795Z,1013.02
2017-04-02T10:11:33.735Z,1013.01
2017-04-02T10:12:33.671Z,1013.03
2017-04-02T10:13:33.608Z,1013.02
2017-04-02T10:14:33.548Z,1013.04
2017-04-02T10:15:33.487Z,1013.05
2017-04-02T10:16:33.424Z,1013.07
2017-04-02T10:17:33.363Z,1013.08
2017-04-02T10:18:33.300Z,1013.03
2017-04-02T10:19:33.239Z,1013.06
2017-04-02T10:20:33.179Z,1013.08
2017-04-02T10:21:33.116Z,1013.06
2017-04-02T10:22:33.055Z,1013.05
2017-04-02T10:23:32.994Z,1013.06
2017-04-02T10:24:32.930Z,1013.1
2017-04-02T10:25:32.870Z,1013.07
2017-04-02T10:26:32.808Z,1013.09
2017-04-02T10:27:32.747Z,1013.06
2017-04-02T10:28:32.683Z,1013.05
2017-04-02T10:29:32.624Z,1013.06
2017-04-02T10:30:32.569Z,1013.03
2017-04-02T10:31:32.501Z,1013.02
2017-04-02T10:32:32.438Z,1013.01
2017-04-02T10:33:32.377Z,1013
2017-04-02T10:34:32.316Z,1013.03
2017-04-02T10:35:32.253Z,1013.04
2017-04-02T10:36:32.192Z,1013.06
2017-04-02T10:37:32.130Z,1013.04
2017-04-02T10:38:32.069Z,1013.03
2017-04-02T10:39:32.006Z,1013
2017-04-02T10:40:31.945Z,1012.99
2017-04-02T10:41:31.883Z,1012.99
2017-04-02T10:42:31.822Z,1013.04
2017-04-02T10:43:31.760Z,1013.02
2017-04-02T10:44:31.698Z,1013
2017-04-02T10:45:31.638Z,1012.98
2017-04-02T10:46:31.573Z,1012.96
2017-04-02T10:47:31.512Z,1012.95
2017-04-02T10:48:31.450Z,1012.92
2017-04-02T10:49:31.390Z,1012.93
2017-04-02T10:50:31.328Z,1012.96
2017-04-02T10:51:31.268Z,1012.91
2017-04-02T10:52:31.205Z,1012.98
2017-04-02T10:53:31.145Z,1012.96
2017-04-02T10:54:31.082Z,1012.98
2017-04-02T10:55:31.019Z,1012.96
2017-04-02T10:56:30.958Z,1012.97
2017-04-02T10:57:30.896Z,1012.99
2017-04-02T10:58:30.835Z,1013.02
2017-04-02T10:59:30.772Z,1013.03
2017-04-02T11:00:30.712Z,1013.04
2017-04-02T11:01:30.650Z,1013.04
2017-04-02T11:02:30.590Z,1013.05
2017-04-02T11:03:30.527Z,1013.05
2017-04-02T11:04:30.465Z,1013.05
2017-04-02T11:05:30.404Z,1013.02
2017-04-02T11:06:30.343Z,1013.03
2017-04-02T11:07:30.281Z,1013.08
2017-04-02T11:08:30.220Z,1013.11
2017-04-02T11:09:30.157Z,1013.1
2017-04-02T11:10:30.097Z,1013.1
2017-04-02T11:11:30.035Z,1013.11
2017-04-02T11:12:29.972Z,1013.15
2017-04-02T11:13:29.911Z,1013.17
2017-04-02T11:14:29.850Z,1013.19
2017-04-02T11:15:29.788Z,1013.19
2017-04-02T11:16:29.726Z,1013.15
2017-04-02T11:17:29.666Z,1013.19
2017-04-02T11:18:29.603Z,1013.23
2017-04-02T11:19:29.540Z,1013.22
2017-04-02T11:20:29.480Z,1013.19
2017-04-02T11:21:29.421Z,1013.2
2017-04-02T11:22:29.358Z,1013.21
2017-04-02T11:23:29.297Z,1013.16
2017-04-02T11:24:29.234Z,1013.17
2017-04-02T11:25:29.172Z,1013.22
2017-04-02T11:26:29.108Z,1013.21
2017-04-02T11:27:29.075Z,1013.17
2017-04-02T11:28:28.987Z,1013.22
2017-04-02T11:29:28.925Z,1013.23
2017-04-02T11:30:28.863Z,1013.26
2017-04-02T11:31:28.802Z,1013.19
2017-04-02T11:32:28.741Z,1013.26
2017-04-02T11:33:28.679Z,1013.28
2017-04-02T11:34:28.615Z,1013.29
2017-04-02T11:35:28.554Z,1013.31
2017-04-02T11:36:28.494Z,1013.32
2017-04-02T11:37:28.430Z,1013.3
2017-04-02T11:38:28.370Z,1013.31
2017-04-02T11:39:28.311Z,1013.33
2017-04-02T11:40:28.247Z,1013.3
2017-04-02T11:41:28.186Z,1013.34
2017-04-02T11:42:28.124Z,1013.36
2017-04-02T11:43:28.063Z,1013.35
2017-04-02T11:44:28.001Z,1013.34
2017-04-02T11:45:27.939Z,1013.38
2017-04-02T11:46:27.879Z,1013.38
2017-04-02T11:47:27.815Z,1013.37
2017-04-02T11:48:27.753Z,1013.4
2017-04-02T11:49:27.692Z,1013.35
2017-04-02T11:50:27.632Z,1013.33
2017-04-02T11:51:27.570Z,1013.33
2017-04-02T11:52:27.507Z,1013.29
2017-04-02T11:53:27.444Z,1013.29
2017-04-02T11:54:27.383Z,1013.28
2017-04-02T11:55:27.324Z,1013.3
2017-04-02T11:56:27.261Z,1013.32
2017-04-02T11:57:27.203Z,1013.3
2017-04-02T11:58:27.138Z,1013.33
2017-04-02T11:59:27.075Z,1013.34
2017-04-02T12:00:27.014Z,1013.33
2017-04-02T12:01:26.954Z,1013.28
2017-04-02T12:02:26.893Z,1013.31
2017-04-02T12:03:26.831Z,1013.31
2017-04-02T12:04:26.768Z,1013.31
2017-04-02T12:05:26.707Z,1013.31
2017-04-02T12:06:26.645Z,1013.32
2017-04-02T12:07:26.583Z,1013.28